createdAt,value
2017-10-24T00:00:47.651Z,945.22
2017-10-24T00:01:47.649Z,945.22
2017-10-24T00:02:47.648Z,945.25
2017-10-24T00:03:47.643Z,945.23
2017-10-24T00:04:47.642Z,945.23
2017-10-24T00:05:47.645Z,945.25
2017-10-24T00:06:47.642Z,945.26
2017-10-24T00:07:47.635Z,945.28
2017-10-24T00:08:47.633Z,945.29
2017-10-24T00:09:47.631Z,945.27
2017-10-24T00:10:47.629Z,945.32
2017-10-24T00:11:47.628Z,945.29
2017-10-24T00:12:47.624Z,945.34
2017-10-24T00:13:47.622Z,945.32
2017-10-24T00:14:47.619Z,945.35
2017-10-24T00:15:47.618Z,945.37
2017-10-24T00:16:47.615Z,945.39
2017-10-24T00:17:47.613Z,945.44
2017-10-24T00:18:47.610Z,945.43
2017-10-24T00:19:47.608Z,945.47
2017-10-24T00:20:47.607Z,945.46
2017-10-24T00:21:47.603Z,945.48
2017-10-24T00:22:47.601Z,945.47
2017-10-24T00:23:47.600Z,945.48
2017-10-24T00:24:47.598Z,945.46
2017-10-24T00:25:47.594Z,945.43
2017-10-24T00:26:47.594Z,945.45
2017-10-24T00:27:47.592Z,945.44
2017-10-24T00:28:47.588Z,945.45
2017-10-24T00:29:47.585Z,945.46
2017-10-24T00:30:47.585Z,945.42
2017-10-24T00:31:47.582Z,945.36
2017-10-24T00:32:47.581Z,945.40
2017-10-24T00:33:47.577Z,945.40
2017-10-24T00:34:47.575Z,945.40
2017-10-24T00:35:47.575Z,945.36
2017-10-24T00:36:47.571Z,945.35
2017-10-24T00:37:47.568Z,945.33
2017-10-24T00:38:47.566Z,945.35
2017-10-24T00:39:47.565Z,945.32
2017-10-24T00:40:47.572Z,945.30
2017-10-24T00:41:47.559Z,945.30
2017-10-24T00:42:47.558Z,945.31
2017-10-24T00:43:47.555Z,945.30
2017-10-24T00:44:47.555Z,945.28
2017-10-24T00:45:47.550Z,945.30
2017-10-24T00:46:47.548Z,945.33
2017-10-24T00:47:47.547Z,945.31
2017-10-24T00:48:47.545Z,945.33
2017-10-24T00:49:47.541Z,945.32
2017-10-24T00:50:47.541Z,945.39
2017-10-24T00:51:47.537Z,945.36
2017-10-24T00:52:47.536Z,945.35
2017-10-24T00:53:47.550Z,945.36
2017-10-24T00:54:47.531Z,945.36
2017-10-24T00:55:47.527Z,945.37
2017-10-24T00:56:47.525Z,945.43
2017-10-24T00:57:47.524Z,945.41
2017-10-24T00:58:47.526Z,945.46
2017-10-24T00:59:47.520Z,945.51
2017-10-24T01:00:47.517Z,945.47
2017-10-24T01:01:47.514Z,945.51
2017-10-24T01:02:47.512Z,945.43
2017-10-24T01:03:47.510Z,945.47
2017-10-24T01:04:47.508Z,945.49
2017-10-24T01:05:47.504Z,945.42
2017-10-24T01:06:47.511Z,945.48
2017-10-24T01:07:47.501Z,945.50
2017-10-24T01:08:47.499Z,945.48
2017-10-24T01:09:47.498Z,945.49
2017-10-24T01:10:47.495Z,945.49
2017-10-24T01:11:47.491Z,945.46
2017-10-24T01:12:47.494Z,945.51
2017-10-24T01:13:47.488Z,945.49
2017-10-24T01:14:47.487Z,945.51
2017-10-24T01:15:47.485Z,945.50
2017-10-24T01:16:47.484Z,945.50
2017-10-24T01:17:47.479Z,945.53
2017-10-24T01:18:47.478Z,945.54
2017-10-24T01:19:47.475Z,945.55
2017-10-24T01:20:47.474Z,945.54
2017-10-24T01:21:47.470Z,945.55
2017-10-24T01:22:47.469Z,945.62
2017-10-24T01:23:47.473Z,945.61
2017-10-24T01:24:47.466Z,945.58
2017-10-24T01:25:47.463Z,945.58
2017-10-24T01:26:47.461Z,945.58
2017-10-24T01:27:47.459Z,945.53
2017-10-24T01:28:47.457Z,945.54
2017-10-24T01:29:47.454Z,945.57
2017-10-24T01:30:47.451Z,945.53
2017-10-24T01:31:47.449Z,945.56
2017-10-24T01:32:47.449Z,945.58
2017-10-24T01:33:47.444Z,945.60
2017-10-24T01:34:47.444Z,945.59
2017-10-24T01:35:47.442Z,945.57
2017-10-24T01:36:47.439Z,945.56
2017-10-24T01:37:47.436Z,945.52
2017-10-24T01:38:47.435Z,945.54
2017-10-24T01:39:47.434Z,945.58
2017-10-24T01:40:47.432Z,945.55
2017-10-24T01:41:47.428Z,945.53
2017-10-24T01:42:47.426Z,945.54
2017-10-24T01:43:47.424Z,945.55
2017-10-24T01:44:47.424Z,945.55
2017-10-24T01:45:47.420Z,945.51
2017-10-24T01:46:47.419Z,945.54
2017-10-24T01:47:47.416Z,945.59
2017-10-24T01:48:47.415Z,945.57
2017-10-24T01:49:47.411Z,945.58
2017-10-24T01:50:47.409Z,945.57
2017-10-24T01:51:47.407Z,945.58
2017-10-24T01:52:47.406Z,945.53
2017-10-24T01:53:47.403Z,945.52
2017-10-24T01:54:47.401Z,945.49
2017-10-24T01:55:47.399Z,945.49
2017-10-24T01:56:47.399Z,945.52
2017-10-24T01:57:47.394Z,945.50
2017-10-24T01:58:47.393Z,945.51
2017-10-24T01:59:47.390Z,945.48
2017-10-24T02:00:47.389Z,945.46
2017-10-24T02:01:47.386Z,945.50
2017-10-24T02:02:47.385Z,945.50
2017-10-24T02:03:47.383Z,945.56
2017-10-24T02:04:47.382Z,945.52
2017-10-24T02:05:47.379Z,945.58
2017-10-24T02:06:47.376Z,945.56
2017-10-24T02:07:47.375Z,945.59
2017-10-24T02:08:47.374Z,945.58
2017-10-24T02:09:47.370Z,945.59
2017-10-24T02:10:47.368Z,945.59
2017-10-24T02:11:47.366Z,945.59
2017-10-24T02:12:47.365Z,945.59
2017-10-24T02:13:47.362Z,945.56
2017-10-24T02:14:47.359Z,945.61
2017-10-24T02:15:47.360Z,945.62
2017-10-24T02:16:47.357Z,945.62
2017-10-24T02:17:47.355Z,945.59
2017-10-24T02:18:47.351Z,945.61
2017-10-24T02:19:47.351Z,945.59
2017-10-24T02:20:47.349Z,945.56
2017-10-24T02:21:47.346Z,945.61
2017-10-24T02:22:47.343Z,945.61
2017-10-24T02:23:47.342Z,945.63
2017-10-24T02:24:47.341Z,945.64
2017-10-24T02:25:47.338Z,945.66
2017-10-24T02:26:47.336Z,945.68
2017-10-24T02:27:47.335Z,945.64
2017-10-24T02:28:47.333Z,945.64
2017-10-24T02:29:47.338Z,945.60
2017-10-24T02:30:47.326Z,945.56
2017-10-24T02:31:47.325Z,945.61
2017-10-24T02:32:47.324Z,945.65
2017-10-24T02:33:47.321Z,945.64
2017-10-24T02:34:47.319Z,945.62
2017-10-24T02:35:47.318Z,945.64
2017-10-24T02:36:47.316Z,945.70
2017-10-24T02:37:47.313Z,945.67
2017-10-24T02:38:47.314Z,945.69
2017-10-24T02:39:47.308Z,945.69
2017-10-24T02:40:47.308Z,945.64
2017-10-24T02:41:47.304Z,945.67
2017-10-24T02:42:47.301Z,945.66
2017-10-24T02:43:47.300Z,945.66
2017-10-24T02:44:47.298Z,945.65
2017-10-24T02:45:47.298Z,945.66
2017-10-24T02:46:47.294Z,945.67
2017-10-24T02:47:47.293Z,945.65
2017-10-24T02:48:47.289Z,945.59
2017-10-24T02:49:47.289Z,945.59
2017-10-24T02:50:47.286Z,945.63
2017-10-24T02:51:47.302Z,945.67
2017-10-24T02:52:47.532Z,945.67
2017-10-24T02:53:47.284Z,945.67
2017-10-24T02:54:47.277Z,945.66
2017-10-24T02:55:47.275Z,945.61
2017-10-24T02:56:47.273Z,945.70
2017-10-24T02:57:47.272Z,945.68
2017-10-24T02:58:47.270Z,945.68
2017-10-24T02:59:47.266Z,945.66
2017-10-24T03:00:47.266Z,945.65
2017-10-24T03:01:47.263Z,945.72
2017-10-24T03:02:47.260Z,945.68
2017-10-24T03:03:47.259Z,945.71
2017-10-24T03:04:47.255Z,945.70
2017-10-24T03:05:47.254Z,945.74
2017-10-24T03:06:47.252Z,945.72
2017-10-24T03:07:47.249Z,945.69
2017-10-24T03:08:47.247Z,945.72
2017-10-24T03:09:47.246Z,945.75
2017-10-24T03:10:47.244Z,945.73
2017-10-24T03:11:47.242Z,945.71
2017-10-24T03:12:47.245Z,945.75
2017-10-24T03:13:47.241Z,945.74
2017-10-24T03:14:47.235Z,945.75
2017-10-24T03:15:47.233Z,945.77
2017-10-24T03:16:47.230Z,945.78
2017-10-24T03:17:47.229Z,945.77
2017-10-24T03:18:47.227Z,945.72
2017-10-24T03:19:47.225Z,945.76
2017-10-24T03:20:47.222Z,945.76
2017-10-24T03:21:47.220Z,945.79
2017-10-24T03:22:47.216Z,945.83
2017-10-24T03:23:47.216Z,945.82
2017-10-24T03:24:47.215Z,945.87
2017-10-24T03:25:47.211Z,945.89
2017-10-24T03:26:47.208Z,945.86
2017-10-24T03:27:47.207Z,945.92
2017-10-24T03:28:47.215Z,945.85
2017-10-24T03:29:47.201Z,945.90
2017-10-24T03:30:47.200Z,945.94
2017-10-24T03:31:47.198Z,945.96
2017-10-24T03:32:47.197Z,945.93
2017-10-24T03:33:47.193Z,945.95
2017-10-24T03:34:47.190Z,945.95
2017-10-24T03:35:47.192Z,945.95
2017-10-24T03:36:47.186Z,946.01
2017-10-24T03:37:47.185Z,946.00
2017-10-24T03:38:47.183Z,945.97
2017-10-24T03:39:47.179Z,945.99
2017-10-24T03:40:47.198Z,945.98
2017-10-24T03:41:47.174Z,945.94
2017-10-24T03:42:47.172Z,945.96
2017-10-24T03:43:47.170Z,945.96
2017-10-24T03:44:47.170Z,945.98
2017-10-24T03:45:47.166Z,946.02
2017-10-24T03:46:47.165Z,946.02
2017-10-24T03:47:47.163Z,946.03
2017-10-24T03:48:47.164Z,946.09
2017-10-24T03:49:47.156Z,946.08
2017-10-24T03:50:47.154Z,946.06
2017-10-24T03:51:47.157Z,946.08
2017-10-24T03:52:47.150Z,946.12
2017-10-24T03:53:47.149Z,946.09
2017-10-24T03:54:47.148Z,946.10
2017-10-24T03:55:47.144Z,946.09
2017-10-24T03:56:47.140Z,946.07
2017-10-24T03:57:47.138Z,946.07
2017-10-24T03:58:47.135Z,946.08
2017-10-24T03:59:47.140Z,946.12
2017-10-24T04:00:47.132Z,946.12
2017-10-24T04:01:47.131Z,946.12
2017-10-24T04:02:47.126Z,946.14
2017-10-24T04:03:47.126Z,946.11
2017-10-24T04:04:47.124Z,946.13
2017-10-24T04:05:47.121Z,946.14
2017-10-24T04:06:47.123Z,946.18
2017-10-24T04:07:47.116Z,946.17
2017-10-24T04:08:47.115Z,946.16
2017-10-24T04:09:47.111Z,946.17
2017-10-24T04:10:47.110Z,946.10
2017-10-24T04:11:47.107Z,946.13
2017-10-24T04:12:47.108Z,946.12
2017-10-24T04:13:47.102Z,946.18
2017-10-24T04:14:47.101Z,946.17
2017-10-24T04:15:47.105Z,946.12
2017-10-24T04:16:47.097Z,946.15
2017-10-24T04:17:47.095Z,946.13
2017-10-24T04:18:47.093Z,946.12
2017-10-24T04:19:47.092Z,946.16
2017-10-24T04:20:47.088Z,946.12
2017-10-24T04:21:47.085Z,946.19
2017-10-24T04:22:47.084Z,946.13
2017-10-24T04:23:47.083Z,946.20
2017-10-24T04:24:47.080Z,946.22
2017-10-24T04:25:47.077Z,946.22
2017-10-24T04:26:47.075Z,946.25
2017-10-24T04:27:47.074Z,946.20
2017-10-24T04:28:47.071Z,946.20
2017-10-24T04:29:47.069Z,946.28
2017-10-24T04:30:47.066Z,946.24
2017-10-24T04:31:47.066Z,946.25
2017-10-24T04:32:47.064Z,946.19
2017-10-24T04:33:47.060Z,946.16
2017-10-24T04:34:47.060Z,946.17
2017-10-24T04:35:47.058Z,946.21
2017-10-24T04:36:47.054Z,946.16
2017-10-24T04:37:47.052Z,946.15
2017-10-24T04:38:47.050Z,946.15
2017-10-24T04:39:47.050Z,946.12
2017-10-24T04:40:47.046Z,946.16
2017-10-24T04:41:47.044Z,946.19
2017-10-24T04:42:47.041Z,946.16
2017-10-24T04:43:47.041Z,946.17
2017-10-24T04:44:47.039Z,946.20
2017-10-24T04:45:47.036Z,946.20
2017-10-24T04:46:47.034Z,946.21
2017-10-24T04:47:47.032Z,946.25
2017-10-24T04:48:47.031Z,946.25
2017-10-24T04:49:47.026Z,946.23
2017-10-24T04:50:47.026Z,946.22
2017-10-24T04:51:47.024Z,946.26
2017-10-24T04:52:47.021Z,946.26
2017-10-24T04:53:47.018Z,946.21
2017-10-24T04:54:47.016Z,946.23
2017-10-24T04:55:47.014Z,946.28
2017-10-24T04:56:47.013Z,946.28
2017-10-24T04:57:47.011Z,946.30
2017-10-24T04:58:47.007Z,946.28
2017-10-24T04:59:47.006Z,946.32
2017-10-24T05:00:47.003Z,946.31
2017-10-24T05:01:47.002Z,946.32
2017-10-24T05:02:47.000Z,946.34
2017-10-24T05:03:46.997Z,946.34
2017-10-24T05:04:46.996Z,946.31
2017-10-24T05:05:46.994Z,946.33
2017-10-24T05:06:46.991Z,946.35
2017-10-24T05:07:46.988Z,946.37
2017-10-24T05:08:46.988Z,946.37
2017-10-24T05:09:46.984Z,946.36
2017-10-24T05:10:46.981Z,946.34
2017-10-24T05:11:46.981Z,946.36
2017-10-24T05:12:46.983Z,946.39
2017-10-24T05:13:46.976Z,946.38
2017-10-24T05:14:46.973Z,946.40
2017-10-24T05:15:46.974Z,946.35
2017-10-24T05:16:46.969Z,946.40
2017-10-24T05:17:46.969Z,946.41
2017-10-24T05:18:46.965Z,946.38
2017-10-24T05:19:46.962Z,946.41
2017-10-24T05:20:46.961Z,946.43
2017-10-24T05:21:46.957Z,946.45
2017-10-24T05:22:46.957Z,946.43
2017-10-24T05:23:46.953Z,946.41
2017-10-24T05:24:46.952Z,946.43
2017-10-24T05:25:46.949Z,946.45
2017-10-24T05:26:46.947Z,946.41
2017-10-24T05:27:46.945Z,946.41
2017-10-24T05:28:46.943Z,946.41
2017-10-24T05:29:46.940Z,946.42
2017-10-24T05:30:46.938Z,946.38
2017-10-24T05:31:46.937Z,946.36
2017-10-24T05:32:46.935Z,946.36
2017-10-24T05:33:46.934Z,946.36
2017-10-24T05:34:46.929Z,946.38
2017-10-24T05:35:46.928Z,946.41
2017-10-24T05:36:46.926Z,946.43
2017-10-24T05:37:46.922Z,946.41
2017-10-24T05:38:46.920Z,946.43
2017-10-24T05:39:46.919Z,946.44
2017-10-24T05:40:46.917Z,946.43
2017-10-24T05:41:46.914Z,946.37
2017-10-24T05:42:46.913Z,946.41
2017-10-24T05:43:46.910Z,946.43
2017-10-24T05:44:46.915Z,946.44
2017-10-24T05:45:46.905Z,946.46
2017-10-24T05:46:46.903Z,946.48
2017-10-24T05:47:46.902Z,946.47
2017-10-24T05:48:46.899Z,946.51
2017-10-24T05:49:46.895Z,946.50
2017-10-24T05:50:46.894Z,946.51
2017-10-24T05:51:46.893Z,946.56
2017-10-24T05:52:46.891Z,946.54
2017-10-24T05:53:46.887Z,946.50
2017-10-24T05:54:46.885Z,946.53
2017-10-24T05:55:46.884Z,946.53
2017-10-24T05:56:46.893Z,946.54
2017-10-24T05:57:46.879Z,946.51
2017-10-24T05:58:46.881Z,946.50
2017-10-24T05:59:46.876Z,946.48
2017-10-24T06:00:46.874Z,946.50
2017-10-24T06:01:46.871Z,946.51
2017-10-24T06:02:46.868Z,946.50
2017-10-24T06:03:46.866Z,946.50
2017-10-24T06:04:46.864Z,946.51
2017-10-24T06:05:46.862Z,946.47
2017-10-24T06:06:46.860Z,946.46
2017-10-24T06:07:46.858Z,946.50
2017-10-24T06:08:46.855Z,946.49
2017-10-24T06:09:46.852Z,946.46
2017-10-24T06:10:46.850Z,946.46
2017-10-24T06:11:46.849Z,946.44
2017-10-24T06:12:46.846Z,946.46
2017-10-24T06:13:46.844Z,946.45
2017-10-24T06:14:46.842Z,946.44
2017-10-24T06:15:46.840Z,946.42
2017-10-24T06:16:46.840Z,946.42
2017-10-24T06:17:46.837Z,946.44
2017-10-24T06:18:46.833Z,946.46
2017-10-24T06:19:46.831Z,946.43
2017-10-24T06:20:46.829Z,946.45
2017-10-24T06:21:46.828Z,946.46
2017-10-24T06:22:46.826Z,946.46
2017-10-24T06:23:46.823Z,946.43
2017-10-24T06:24:46.822Z,946.46
2017-10-24T06:25:46.819Z,946.44
2017-10-24T06:26:46.815Z,946.42
2017-10-24T06:27:46.815Z,946.45
2017-10-24T06:28:46.812Z,946.43
2017-10-24T06:29:46.809Z,946.45
2017-10-24T06:30:46.807Z,946.47
2017-10-24T06:31:46.806Z,946.51
2017-10-24T06:32:46.806Z,946.50
2017-10-24T06:33:46.802Z,946.51
2017-10-24T06:34:46.799Z,946.52
2017-10-24T06:35:46.798Z,946.56
2017-10-24T06:36:46.797Z,946.60
2017-10-24T06:37:46.802Z,946.58
2017-10-24T06:38:46.793Z,946.59
2017-10-24T06:39:46.791Z,946.56
2017-10-24T06:40:46.790Z,946.63
2017-10-24T06:41:46.790Z,946.64
2017-10-24T06:42:46.785Z,946.60
2017-10-24T06:43:46.782Z,946.62
2017-10-24T06:44:46.781Z,946.61
2017-10-24T06:45:46.779Z,946.66
2017-10-24T06:46:46.776Z,946.63
2017-10-24T06:47:46.774Z,946.63
2017-10-24T06:48:46.774Z,946.62
2017-10-24T06:49:46.770Z,946.67
2017-10-24T06:50:46.769Z,946.70
2017-10-24T06:51:46.767Z,946.71
2017-10-24T06:52:46.765Z,946.75
2017-10-24T06:53:46.763Z,946.72
2017-10-24T06:54:46.865Z,946.73
2017-10-24T06:55:46.762Z,946.74
2017-10-24T06:56:46.759Z,946.70
2017-10-24T06:57:46.756Z,946.72
2017-10-24T06:58:46.754Z,946.70
2017-10-24T06:59:46.752Z,946.72
2017-10-24T07:00:46.752Z,946.72
2017-10-24T07:01:46.748Z,946.72
2017-10-24T07:02:46.746Z,946.75
2017-10-24T07:03:46.745Z,946.71
2017-10-24T07:04:46.745Z,946.69
2017-10-24T07:05:46.742Z,946.72
2017-10-24T07:06:46.739Z,946.73
2017-10-24T07:07:46.740Z,946.70
2017-10-24T07:08:46.738Z,946.76
2017-10-24T07:09:46.735Z,946.72
2017-10-24T07:10:46.734Z,946.76
2017-10-24T07:11:46.735Z,946.75
2017-10-24T07:12:46.732Z,946.74
2017-10-24T07:13:46.728Z,946.70
2017-10-24T07:14:46.730Z,946.70
2017-10-24T07:15:46.726Z,946.71
2017-10-24T07:16:46.725Z,946.72
2017-10-24T07:17:46.721Z,946.69
2017-10-24T07:18:46.720Z,946.70
2017-10-24T07:19:46.722Z,946.75
2017-10-24T07:20:46.719Z,946.71
2017-10-24T07:21:46.716Z,946.71
2017-10-24T07:22:46.715Z,946.65
2017-10-24T07:23:46.715Z,946.74
2017-10-24T07:24:46.713Z,946.68
2017-10-24T07:25:46.710Z,946.69
2017-10-24T07:26:46.710Z,946.64
2017-10-24T07:27:46.709Z,946.69
2017-10-24T07:28:46.707Z,946.76
2017-10-24T07:29:46.706Z,946.70
2017-10-24T07:30:46.708Z,946.67
2017-10-24T07:31:46.703Z,946.71
2017-10-24T07:32:46.702Z,946.67
2017-10-24T07:33:46.702Z,946.69
2017-10-24T07:34:46.699Z,946.67
2017-10-24T07:35:46.704Z,946.68
2017-10-24T07:36:46.699Z,946.69
2017-10-24T07:37:46.697Z,946.75
2017-10-24T07:38:46.695Z,946.74
2017-10-24T07:39:46.694Z,946.76
2017-10-24T07:40:46.693Z,946.72
2017-10-24T07:41:46.691Z,946.72
2017-10-24T07:42:46.690Z,946.70
2017-10-24T07:43:46.691Z,946.71
2017-10-24T07:44:46.694Z,946.72
2017-10-24T07:45:46.693Z,946.70
2017-10-24T07:46:46.689Z,946.68
2017-10-24T07:47:46.687Z,946.71
2017-10-24T07:48:46.687Z,946.70
2017-10-24T07:49:46.690Z,946.71
2017-10-24T07:50:46.685Z,946.67
2017-10-24T07:51:46.688Z,946.71
2017-10-24T07:52:46.684Z,946.62
2017-10-24T07:53:46.683Z,946.69
2017-10-24T07:54:46.682Z,946.67
2017-10-24T07:55:46.683Z,946.67
2017-10-24T07:56:46.681Z,946.69
2017-10-24T07:57:46.681Z,946.71
2017-10-24T07:58:46.683Z,946.66
2017-10-24T07:59:46.679Z,946.67
2017-10-24T08:00:46.679Z,946.70
2017-10-24T08:01:46.684Z,946.74
2017-10-24T08:02:46.679Z,946.72
2017-10-24T08:03:46.680Z,946.73
2017-10-24T08:04:46.681Z,946.70
2017-10-24T08:05:46.678Z,946.74
2017-10-24T08:06:46.698Z,946.80
2017-10-24T08:07:46.680Z,946.71
2017-10-24T08:08:46.678Z,946.76
2017-10-24T08:09:46.684Z,946.78
2017-10-24T08:10:46.679Z,946.70
2017-10-24T08:11:46.683Z,946.71
2017-10-24T08:12:46.678Z,946.77
2017-10-24T08:13:46.678Z,946.77
2017-10-24T08:14:46.677Z,946.75
2017-10-24T08:15:46.679Z,946.77
2017-10-24T08:16:46.678Z,946.81
2017-10-24T08:17:46.677Z,946.72
2017-10-24T08:18:46.697Z,946.73
2017-10-24T08:19:46.677Z,946.77
2017-10-24T08:20:46.677Z,946.70
2017-10-24T08:21:46.676Z,946.74
2017-10-24T08:22:46.677Z,946.73
2017-10-24T08:23:46.677Z,946.76
2017-10-24T08:24:46.677Z,946.80
2017-10-24T08:25:46.676Z,946.83
2017-10-24T08:26:46.677Z,946.82
2017-10-24T08:27:46.677Z,946.79
2017-10-24T08:28:46.676Z,946.82
2017-10-24T08:29:46.675Z,946.79
2017-10-24T08:30:46.675Z,946.81
2017-10-24T08:31:46.675Z,946.79
2017-10-24T08:32:46.676Z,946.78
2017-10-24T08:33:46.680Z,946.81
2017-10-24T08:34:46.676Z,946.80
2017-10-24T08:35:46.677Z,946.81
2017-10-24T08:36:46.676Z,946.79
2017-10-24T08:37:46.675Z,946.80
2017-10-24T08:38:46.677Z,946.79
2017-10-24T08:39:46.679Z,946.84
2017-10-24T08:40:46.677Z,946.89
2017-10-24T08:41:46.675Z,946.89
2017-10-24T08:42:46.677Z,946.89
2017-10-24T08:43:46.677Z,946.93
2017-10-24T08:44:46.678Z,946.91
2017-10-24T08:45:46.679Z,946.92
2017-10-24T08:46:46.680Z,946.93
2017-10-24T08:47:46.680Z,946.90
2017-10-24T08:48:46.680Z,946.92
2017-10-24T08:49:46.681Z,946.95
2017-10-24T08:50:46.681Z,946.93
2017-10-24T08:51:46.682Z,946.96
2017-10-24T08:52:46.683Z,946.96
2017-10-24T08:53:46.685Z,946.95
2017-10-24T08:54:46.688Z,946.95
2017-10-24T08:55:46.686Z,946.96
2017-10-24T08:56:46.687Z,946.94
2017-10-24T08:57:46.689Z,946.86
2017-10-24T08:58:46.695Z,946.85
2017-10-24T08:59:46.690Z,946.90
2017-10-24T09:00:46.693Z,946.92
2017-10-24T09:01:46.693Z,946.99
2017-10-24T09:02:46.695Z,946.99
2017-10-24T09:03:46.697Z,946.99
2017-10-24T09:04:46.699Z,947.00
2017-10-24T09:05:46.698Z,946.97
2017-10-24T09:06:46.701Z,947.06
2017-10-24T09:07:46.702Z,947.00
2017-10-24T09:08:46.707Z,947.08
2017-10-24T09:09:46.707Z,947.09
2017-10-24T09:10:46.709Z,947.12
2017-10-24T09:11:46.712Z,947.14
2017-10-24T09:12:46.716Z,947.15
2017-10-24T09:13:46.718Z,947.13
2017-10-24T09:14:46.722Z,947.14
2017-10-24T09:15:46.728Z,947.11
2017-10-24T09:16:46.729Z,947.12
2017-10-24T09:17:46.743Z,947.18
2017-10-24T09:18:46.734Z,947.18
2017-10-24T09:19:46.749Z,947.18
2017-10-24T09:20:46.741Z,947.18
2017-10-24T09:21:46.744Z,947.17
2017-10-24T09:22:46.746Z,947.10
2017-10-24T09:23:46.749Z,947.12
2017-10-24T09:24:46.760Z,947.15
2017-10-24T09:25:46.756Z,947.18
2017-10-24T09:26:46.758Z,947.22
2017-10-24T09:27:46.761Z,947.17
2017-10-24T09:28:46.765Z,947.27
2017-10-24T09:29:46.768Z,947.31
2017-10-24T09:30:46.772Z,947.30
2017-10-24T09:31:46.777Z,947.24
2017-10-24T09:32:46.783Z,947.27
2017-10-24T09:33:46.788Z,947.25
2017-10-24T09:34:46.791Z,947.23
2017-10-24T09:35:46.798Z,947.23
2017-10-24T09:36:46.802Z,947.30
2017-10-24T09:37:46.806Z,947.23
2017-10-24T09:38:46.812Z,947.23
2017-10-24T09:39:46.817Z,947.23
2017-10-24T09:40:46.823Z,947.21
2017-10-24T09:41:46.828Z,947.26
2017-10-24T09:42:46.832Z,947.23
2017-10-24T09:43:46.837Z,947.22
2017-10-24T09:44:46.852Z,947.21
2017-10-24T09:45:46.848Z,947.25
2017-10-24T09:46:46.853Z,947.22
2017-10-24T09:47:46.860Z,947.20
2017-10-24T09:48:46.864Z,947.21
2017-10-24T09:49:46.870Z,947.22
2017-10-24T09:50:46.873Z,947.17
2017-10-24T09:51:46.878Z,947.20
2017-10-24T09:52:46.884Z,947.21
2017-10-24T09:53:46.888Z,947.23
2017-10-24T09:54:46.893Z,947.20
2017-10-24T09:55:46.898Z,947.22
2017-10-24T09:56:46.902Z,947.29
2017-10-24T09:57:46.910Z,947.25
2017-10-24T09:58:46.911Z,947.24
2017-10-24T09:59:46.915Z,947.22
2017-10-24T10:00:46.919Z,947.29
2017-10-24T10:01:46.924Z,947.30
2017-10-24T10:02:46.929Z,947.36
2017-10-24T10:03:46.933Z,947.34
2017-10-24T10:04:46.939Z,947.34
2017-10-24T10:05:46.943Z,947.38
2017-10-24T10:06:46.951Z,947.37
2017-10-24T10:07:46.953Z,947.41
2017-10-24T10:08:46.957Z,947.43
2017-10-24T10:09:46.962Z,947.41
2017-10-24T10:10:46.969Z,947.40
2017-10-24T10:11:46.974Z,947.40
2017-10-24T10:12:46.979Z,947.34
2017-10-24T10:13:46.985Z,947.38
2017-10-24T10:14:46.990Z,947.35
2017-10-24T10:15:46.995Z,947.34
2017-10-24T10:16:47.001Z,947.30
2017-10-24T10:17:47.005Z,947.28
2017-10-24T10:18:47.010Z,947.34
2017-10-24T10:19:47.016Z,947.25
2017-10-24T10:20:47.020Z,947.26
2017-10-24T10:21:47.026Z,947.24
2017-10-24T10:22:47.030Z,947.20
2017-10-24T10:23:47.035Z,947.19
2017-10-24T10:24:47.040Z,947.16
2017-10-24T10:25:47.046Z,947.17
2017-10-24T10:26:47.051Z,947.10
2017-10-24T10:27:47.059Z,947.11
2017-10-24T10:28:47.069Z,947.09
2017-10-24T10:29:47.065Z,947.09
2017-10-24T10:30:47.072Z,947.09
2017-10-24T10:31:47.077Z,947.07
2017-10-24T10:32:47.083Z,946.99
2017-10-24T10:33:47.088Z,947.04
2017-10-24T10:34:47.095Z,946.98
2017-10-24T10:35:47.102Z,947.02
2017-10-24T10:36:47.108Z,947.02
2017-10-24T10:37:47.114Z,947.00
2017-10-24T10:38:47.122Z,946.94
2017-10-24T10:39:47.130Z,946.89
2017-10-24T10:40:47.136Z,946.88
2017-10-24T10:41:47.141Z,946.85
2017-10-24T10:42:47.152Z,946.86
2017-10-24T10:43:47.156Z,946.86
2017-10-24T10:44:47.176Z,946.85
2017-10-24T10:45:47.169Z,946.81
2017-10-24T10:46:47.175Z,946.81
2017-10-24T10:47:47.184Z,946.73
2017-10-24T10:48:47.192Z,946.76
2017-10-24T10:49:47.197Z,946.71
2017-10-24T10:50:47.203Z,946.73
2017-10-24T10:51:47.211Z,946.72
2017-10-24T10:52:47.219Z,946.74
2017-10-24T10:53:47.224Z,946.72
2017-10-24T10:54:47.236Z,946.76
2017-10-24T10:55:47.238Z,946.80
2017-10-24T10:56:47.244Z,946.82
2017-10-24T10:57:47.252Z,946.81
2017-10-24T10:58:47.258Z,946.78
2017-10-24T10:59:47.265Z,946.71
2017-10-24T11:00:47.271Z,946.75
2017-10-24T11:01:47.277Z,946.72
2017-10-24T11:02:47.284Z,946.69
2017-10-24T11:03:47.290Z,946.66
2017-10-24T11:04:47.297Z,946.66
2017-10-24T11:05:47.303Z,946.63
2017-10-24T11:06:47.311Z,946.64
2017-10-24T11:07:47.318Z,946.66
2017-10-24T11:08:47.324Z,946.66
2017-10-24T11:09:47.330Z,946.66
2017-10-24T11:10:47.336Z,946.69
2017-10-24T11:11:47.344Z,946.72
2017-10-24T11:12:47.352Z,946.75
2017-10-24T11:13:47.358Z,946.79
2017-10-24T11:14:47.366Z,946.84
2017-10-24T11:15:47.372Z,946.79
2017-10-24T11:16:47.380Z,946.81
2017-10-24T11:17:47.387Z,946.83
2017-10-24T11:18:47.395Z,946.85
2017-10-24T11:19:47.403Z,946.87
2017-10-24T11:20:47.411Z,946.88
2017-10-24T11:21:47.417Z,946.90
2017-10-24T11:22:47.425Z,946.91
2017-10-24T11:23:47.434Z,946.89
2017-10-24T11:24:47.440Z,946.95
2017-10-24T11:25:47.446Z,946.94
2017-10-24T11:26:47.454Z,946.90
2017-10-24T11:27:47.462Z,946.92
2017-10-24T11:28:47.480Z,946.91
2017-10-24T11:29:47.476Z,946.91
2017-10-24T11:30:47.485Z,946.91
2017-10-24T11:31:47.493Z,946.87
2017-10-24T11:32:47.501Z,946.87
2017-10-24T11:33:47.507Z,946.84
2017-10-24T11:34:47.514Z,946.87
2017-10-24T11:35:47.522Z,946.84
2017-10-24T11:36:47.528Z,946.91
2017-10-24T11:37:47.535Z,946.90
2017-10-24T11:38:47.543Z,946.91
2017-10-24T11:39:47.549Z,946.91
2017-10-24T11:40:47.558Z,946.89
2017-10-24T11:41:47.564Z,946.89
2017-10-24T11:42:47.572Z,946.87
2017-10-24T11:43:47.578Z,946.86
2017-10-24T11:44:47.587Z,946.85
2017-10-24T11:45:47.593Z,946.85
2017-10-24T11:46:47.599Z,946.80
2017-10-24T11:47:47.606Z,946.84
2017-10-24T11:48:47.614Z,946.85
2017-10-24T11:49:47.620Z,946.84
2017-10-24T11:50:47.628Z,946.80
2017-10-24T11:51:47.635Z,946.78
2017-10-24T11:52:47.644Z,946.78
2017-10-24T11:53:47.662Z,946.78
2017-10-24T11:54:47.657Z,946.71
2017-10-24T11:55:47.665Z,946.77
2017-10-24T11:56:47.673Z,946.77
2017-10-24T11:57:47.680Z,946.77
2017-10-24T11:58:47.688Z,946.76
2017-10-24T11:59:47.702Z,946.74
2017-10-24T12:00:47.703Z,946.73
2017-10-24T12:01:47.713Z,946.73
2017-10-24T12:02:47.722Z,946.68
2017-10-24T12:03:47.729Z,946.67
2017-10-24T12:04:47.737Z,946.65
2017-10-24T12:05:47.744Z,946.62
2017-10-24T12:06:47.754Z,946.65
2017-10-24T12:07:47.762Z,946.63
2017-10-24T12:08:47.771Z,946.58
2017-10-24T12:09:47.780Z,946.51
2017-10-24T12:10:47.789Z,946.51
2017-10-24T12:11:47.797Z,946.47
2017-10-24T12:12:47.807Z,946.49
2017-10-24T12:13:47.813Z,946.52
2017-10-24T12:14:47.822Z,946.53
2017-10-24T12:15:47.832Z,946.50
2017-10-24T12:16:47.840Z,946.48
2017-10-24T12:17:47.849Z,946.45
2017-10-24T12:18:47.862Z,946.42
2017-10-24T12:19:47.868Z,946.39
2017-10-24T12:20:47.875Z,946.40
2017-10-24T12:21:47.883Z,946.35
2017-10-24T12:22:47.893Z,946.34
2017-10-24T12:23:47.902Z,946.33
2017-10-24T12:24:47.918Z,946.34
2017-10-24T12:25:47.920Z,946.35
2017-10-24T12:26:47.927Z,946.35
2017-10-24T12:27:47.937Z,946.34
2017-10-24T12:28:47.946Z,946.38